Time;durP1;ratioP1;P1;durP2;ratioP2;P2;SDS_P1;SDS_P2;PMS_P1;PMS_P2;Temp;Humidity;BMP_temperature;BMP_pressure;BME280_temperature;BME280_humidity;BME280_pressure;Samples;Min_cycle;Max_cycle;Signal;HPM_P1;HPM_P2
2021/02/23 00:04:18;;;;;;;105.5;73.3;;;;;;;-0.16;100;99945.16;;;;
2021/02/23 00:14:16;;;;;;;73.7;63;;;;;;;-0.55;100;99931.9;;;;
2021/02/23 00:24:13;;;;;;;84.8;60.8;;;;;;;-0.76;100;99951.42;;;;
2021/02/23 00:34:11;;;;;;;68.8;58.6;;;;;;;-1.03;100;99960.31;;;;
2021/02/23 00:44:09;;;;;;;101;69.4;;;;;;;-1.23;100;99976.13;;;;
2021/02/23 00:54:06;;;;;;;96.6;71.9;;;;;;;-1.32;100;99985.22;;;;
2021/02/23 01:04:04;;;;;;;78.8;61.7;;;;;;;-1.41;100;99999.63;;;;
2021/02/23 01:14:01;;;;;;;92.7;64.3;;;;;;;-1.5;100;100006.1;;;;
2021/02/23 01:23:59;;;;;;;98.1;71.7;;;;;;;-1.67;100;100004.8;;;;
2021/02/23 01:33:56;;;;;;;89.8;72.4;;;;;;;-1.84;100;100017.4;;;;
2021/02/23 01:43:54;;;;;;;96.4;71.4;;;;;;;-2.01;100;100018.7;;;;
2021/02/23 01:53:52;;;;;;;96.4;65.7;;;;;;;-2.07;100;100008.9;;;;
2021/02/23 02:03:49;;;;;;;80.3;55.7;;;;;;;-2.11;100;100027;;;;
2021/02/23 02:13:47;;;;;;;85.1;60.3;;;;;;;-2.12;100;100040.4;;;;
2021/02/23 02:23:44;;;;;;;91.6;58.3;;;;;;;-2.14;100;100045;;;;
2021/02/23 02:33:42;;;;;;;81.7;60.9;;;;;;;-1.94;100;100047.9;;;;
2021/02/23 02:43:39;;;;;;;116;88.9;;;;;;;-0.75;100;100068.7;;;;
2021/02/23 02:53:37;;;;;;;137.3;93.5;;;;;;;-1.61;100;100086.8;;;;
2021/02/23 03:03:34;;;;;;;115.1;86.3;;;;;;;-1.82;100;100093.9;;;;
2021/02/23 03:13:32;;;;;;;104.9;88.8;;;;;;;-1.9;100;100107.2;;;;
2021/02/23 03:23:30;;;;;;;113.5;84.1;;;;;;;-1.98;100;100131.1;;;;
2021/02/23 03:33:27;;;;;;;120.7;84;;;;;;;-1.89;100;100140.6;;;;
2021/02/23 03:43:25;;;;;;;98.4;72.2;;;;;;;-1.71;100;100138.3;;;;
2021/02/23 03:53:22;;;;;;;112.7;85;;;;;;;-1.17;100;100152.5;;;;
2021/02/23 04:03:20;;;;;;;101.4;75.6;;;;;;;0.04;100;100174.9;;;;
2021/02/23 04:13:18;;;;;;;97.4;74.8;;;;;;;0.48;100;100191.1;;;;
2021/02/23 04:23:15;;;;;;;81.1;64.3;;;;;;;0.38;100;100201.3;;;;
2021/02/23 04:33:13;;;;;;;78.7;57.4;;;;;;;0.56;100;100221.9;;;;
2021/02/23 04:43:11;;;;;;;77.3;55.9;;;;;;;0.72;100;100221.5;;;;
2021/02/23 04:53:09;;;;;;;60.9;48.8;;;;;;;0.75;100;100219.3;;;;
2021/02/23 05:03:07;;;;;;;72.3;50.6;;;;;;;0.79;100;100215.2;;;;
2021/02/23 05:13:05;;;;;;;57.1;48.5;;;;;;;0.87;100;100220.3;;;;
2021/02/23 05:23:02;;;;;;;54.5;38.1;;;;;;;0.89;100;100233.3;;;;
2021/02/23 05:33:00;;;;;;;40.7;33.9;;;;;;;0.96;100;100245.6;;;;
2021/02/23 05:42:58;;;;;;;41.1;33.7;;;;;;;0.94;100;100257.4;;;;
2021/02/23 05:52:56;;;;;;;41.7;37.2;;;;;;;1.01;100;100253.8;;;;
2021/02/23 06:03:07;;;;;;;43.5;33.6;;;;;;;1.14;100;100270.7;;;;
2021/02/23 06:12:55;;;;;;;40.6;32.3;;;;;;;1.22;100;100287.2;;;;
2021/02/23 06:22:50;;;;;;;43.9;34;;;;;;;1.28;100;100296.3;;;;
2021/02/23 06:32:48;;;;;;;41.3;32.2;;;;;;;1.31;100;100309.9;;;;
2021/02/23 06:42:45;;;;;;;42.4;34.5;;;;;;;1.37;100;100321.6;;;;
2021/02/23 06:52:43;;;;;;;55.6;40.6;;;;;;;1.47;100;100343.2;;;;
2021/02/23 07:02:41;;;;;;;48.6;35.7;;;;;;;1.67;100;100335.2;;;;
2021/02/23 07:12:39;;;;;;;39.6;35.4;;;;;;;1.67;100;100343.2;;;;
2021/02/23 07:22:37;;;;;;;44.5;33.5;;;;;;;1.86;100;100343.2;;;;
2021/02/23 07:32:36;;;;;;;41.1;33.3;;;;;;;2.05;100;100367.3;;;;
2021/02/23 07:42:33;;;;;;;43.2;33.5;;;;;;;2.03;100;100368.3;;;;
2021/02/23 07:52:32;;;;;;;37.1;30.5;;;;;;;2.24;100;100377;;;;
2021/02/23 08:02:30;;;;;;;39.3;30.9;;;;;;;2.32;100;100382.1;;;;
2021/02/23 08:12:28;;;;;;;33.6;30;;;;;;;2.39;100;100374.9;;;;
2021/02/23 08:22:26;;;;;;;41;31.1;;;;;;;2.45;100;100371.4;;;;
2021/02/23 08:32:24;;;;;;;37.4;30.8;;;;;;;2.71;100;100378.5;;;;
2021/02/23 08:42:23;;;;;;;35.7;30.6;;;;;;;2.89;100;100387.4;;;;
2021/02/23 08:52:20;;;;;;;58.4;41.9;;;;;;;3.28;100;100391.6;;;;
2021/02/23 09:02:18;;;;;;;65.3;48.4;;;;;;;3.39;100;100392.8;;;;
2021/02/23 09:12:16;;;;;;;43.7;35;;;;;;;3.48;100;100403;;;;
2021/02/23 09:22:15;;;;;;;73.9;46.1;;;;;;;3.52;100;100403.4;;;;
2021/02/23 09:32:13;;;;;;;60.4;42.3;;;;;;;4.04;100;100415.4;;;;
2021/02/23 09:42:11;;;;;;;54.5;46.7;;;;;;;4.25;100;100419.5;;;;
2021/02/23 09:52:12;;;;;;;60.3;41.6;;;;;;;4.54;100;100419.6;;;;
2021/02/23 10:02:10;;;;;;;62.4;42.9;;;;;;;5.14;99.03223;100424.2;;;;
2021/02/23 10:12:06;;;;;;;59.2;46.8;;;;;;;5.55;96.30176;100417;;;;
2021/02/23 10:22:05;;;;;;;63.5;51.2;;;;;;;5.41;94.61621;100422.8;;;;
2021/02/23 10:32:03;;;;;;;66.1;48.7;;;;;;;5.49;93.70215;100406.4;;;;
2021/02/23 10:42:01;;;;;;;59.1;46;;;;;;;5.02;95.27344;100397.4;;;;
2021/02/23 10:52:00;;;;;;;66.9;50.6;;;;;;;5.35;95.80176;100402.3;;;;
2021/02/23 11:01:58;;;;;;;50.1;39.1;;;;;;;5.96;92.76074;100410.8;;;;
2021/02/23 11:11:57;;;;;;;57.6;42.6;;;;;;;6.73;89.7168;100399.8;;;;
2021/02/23 11:21:55;;;;;;;58.7;45.8;;;;;;;7.08;86.76953;100422.8;;;;
2021/02/23 11:31:55;;;;;;;51.7;38.1;;;;;;;7.66;81.58496;100437.8;;;;
2021/02/23 11:41:56;;;;;;;48.9;36.4;;;;;;;8.17;81.76855;100444.7;;;;
2021/02/23 11:51:51;;;;;;;47.9;42.6;;;;;;;8.4;78.95313;100455.3;;;;
2021/02/23 12:01:50;;;;;;;62.5;41.9;;;;;;;8.91;78.61816;100447.9;;;;
2021/02/23 12:11:49;;;;;;;40.4;36.2;;;;;;;8.77;76.90723;100454.7;;;;
2021/02/23 12:21:50;;;;;;;44.5;34;;;;;;;9.11;76.59668;100448.1;;;;
2021/02/23 12:31:47;;;;;;;46.1;36.5;;;;;;;9.18;76.26172;100459.5;;;;
2021/02/23 12:41:45;;;;;;;42.8;34.9;;;;;;;9.45;73.48242;100457.6;;;;
2021/02/23 12:51:45;;;;;;;38.1;34;;;;;;;9.43;73.82715;100467.9;;;;
2021/02/23 13:01:43;;;;;;;37.3;31.5;;;;;;;9.64;73.62695;100468.9;;;;
2021/02/23 13:11:42;;;;;;;47.8;32.8;;;;;;;9.84;72.80273;100489.8;;;;
2021/02/23 13:21:41;;;;;;;34.3;29.3;;;;;;;9.78;72.58008;100478.2;;;;
2021/02/23 13:31:40;;;;;;;35.7;29.3;;;;;;;9.9;72.49609;100467.2;;;;
2021/02/23 13:41:39;;;;;;;36.6;30.4;;;;;;;9.9;71.74023;100480.7;;;;
2021/02/23 13:51:38;;;;;;;39.9;31.8;;;;;;;9.93;72.28711;100472.9;;;;
2021/02/23 14:01:37;;;;;;;37.6;33.8;;;;;;;9.98;72.97168;100466.7;;;;
2021/02/23 14:11:36;;;;;;;34.3;30;;;;;;;9.85;72.40918;100473.4;;;;
2021/02/23 14:21:35;;;;;;;57.6;36.9;;;;;;;9.76;72.78906;100482.2;;;;
2021/02/23 14:31:34;;;;;;;36.3;32;;;;;;;9.82;73.76953;100470.4;;;;
2021/02/23 14:41:32;;;;;;;41.9;34.1;;;;;;;9.81;74.80469;100472.3;;;;
2021/02/23 14:51:31;;;;;;;42.3;34;;;;;;;9.64;75.54199;100468.9;;;;
2021/02/23 15:01:30;;;;;;;43.4;34.1;;;;;;;9.38;76.33008;100470.5;;;;
2021/02/23 15:11:29;;;;;;;38.9;33.8;;;;;;;9.4;76.96289;100475.6;;;;
2021/02/23 15:21:28;;;;;;;52.8;38.2;;;;;;;9.3;77.03418;100475.5;;;;
2021/02/23 15:31:27;;;;;;;47.9;38.9;;;;;;;8.97;78.06934;100480;;;;
2021/02/23 15:41:26;;;;;;;46;37.8;;;;;;;8.67;78.66309;100486.9;;;;
2021/02/23 15:51:24;;;;;;;58.8;40.2;;;;;;;8.22;79.32227;100487;;;;
2021/02/23 16:01:23;;;;;;;58.7;46;;;;;;;7.63;80.48145;100500;;;;
2021/02/23 16:11:22;;;;;;;55.7;43.8;;;;;;;7.1;82.55273;100511;;;;
2021/02/23 16:21:21;;;;;;;61.4;47.1;;;;;;;6.54;84.70801;100511.7;;;;
2021/02/23 16:31:20;;;;;;;43.5;38.7;;;;;;;6.11;85.79395;100513.9;;;;
2021/02/23 16:41:18;;;;;;;51.6;39.4;;;;;;;5.81;88.20508;100509.4;;;;
2021/02/23 16:51:16;;;;;;;64;45.2;;;;;;;5.57;89.20215;100524.5;;;;
2021/02/23 17:01:15;;;;;;;55.4;45.1;;;;;;;5.36;90.13379;100521.5;;;;
2021/02/23 17:11:13;;;;;;;85;60;;;;;;;5.11;90.69141;100531.5;;;;
2021/02/23 17:21:12;;;;;;;51.5;43.4;;;;;;;4.96;92.24707;100531.9;;;;
2021/02/23 17:31:10;;;;;;;61.6;40.9;;;;;;;4.81;92.12598;100532.3;;;;
2021/02/23 17:41:09;;;;;;;46.7;40.5;;;;;;;4.79;92.77637;100531.7;;;;
2021/02/23 17:51:07;;;;;;;54.7;42.9;;;;;;;4.73;93.39453;100529.1;;;;
2021/02/23 18:01:05;;;;;;;59.2;48.1;;;;;;;4.66;94.00977;100528.3;;;;
2021/02/23 18:11:04;;;;;;;66.6;52.8;;;;;;;4.56;94.19922;100526.2;;;;
2021/02/23 18:21:02;;;;;;;61.4;47.7;;;;;;;4.65;95.83398;100526.7;;;;
2021/02/23 18:31:00;;;;;;;69.6;54.1;;;;;;;4.78;95.91699;100510.5;;;;
2021/02/23 18:40:59;;;;;;;75.5;56.5;;;;;;;4.76;95.66113;100518.8;;;;
2021/02/23 18:50:57;;;;;;;75.6;51.8;;;;;;;4.66;95.70313;100512.3;;;;
2021/02/23 19:00:56;;;;;;;68.3;57.3;;;;;;;4.66;96.14746;100513.1;;;;
2021/02/23 19:10:56;;;;;;;63.4;51.5;;;;;;;4.52;95.93945;100525.8;;;;
2021/02/23 19:20:52;;;;;;;68.6;56.3;;;;;;;4.49;96.08594;100528.1;;;;
2021/02/23 19:30:51;;;;;;;79;64.6;;;;;;;4.43;96.41699;100535.1;;;;
2021/02/23 19:40:49;;;;;;;89.1;72.6;;;;;;;4.41;96.95313;100536.4;;;;
2021/02/23 19:50:47;;;;;;;76.3;67;;;;;;;4.23;96.27148;100544.4;;;;
2021/02/23 20:00:45;;;;;;;87.6;72.8;;;;;;;4.14;97.36816;100540.3;;;;
2021/02/23 20:10:43;;;;;;;86.1;65.9;;;;;;;4.2;97.94531;100542.1;;;;
2021/02/23 20:20:42;;;;;;;92.5;70.2;;;;;;;4.14;97.48926;100551;;;;
2021/02/23 20:30:40;;;;;;;89.9;70.7;;;;;;;4.01;97.49414;100552.7;;;;
2021/02/23 20:40:38;;;;;;;111.4;68.8;;;;;;;3.87;97.85938;100556.5;;;;
2021/02/23 20:50:36;;;;;;;90.5;64.9;;;;;;;3.83;98.52441;100557.2;;;;
2021/02/23 21:00:34;;;;;;;93;68.1;;;;;;;3.7;98.01953;100544.7;;;;
2021/02/23 21:10:33;;;;;;;92.1;75.4;;;;;;;3.51;97.95508;100561.6;;;;
2021/02/23 21:20:31;;;;;;;102.7;89.2;;;;;;;3.2;96.60547;100582.9;;;;
2021/02/23 21:30:29;;;;;;;113.5;89.8;;;;;;;3.05;99.96582;100576;;;;
2021/02/23 21:40:27;;;;;;;140.3;101.7;;;;;;;3.22;100;100586.2;;;;
2021/02/23 21:50:25;;;;;;;112.2;93.5;;;;;;;3.41;100;100577.3;;;;
2021/02/23 22:00:23;;;;;;;118.4;92.1;;;;;;;3.43;100;100592.1;;;;
2021/02/23 22:10:22;;;;;;;108.6;88.2;;;;;;;3.46;100;100593.5;;;;
2021/02/23 22:20:20;;;;;;;112.2;88.5;;;;;;;3.45;100;100605.2;;;;
2021/02/23 22:30:19;;;;;;;142;103.5;;;;;;;3.59;100;100589.9;;;;
2021/02/23 22:40:16;;;;;;;136.9;104.8;;;;;;;3.69;100;100598.3;;;;
2021/02/23 22:50:14;;;;;;;110;93.1;;;;;;;3.58;100;100594.4;;;;
2021/02/23 23:00:12;;;;;;;114.5;94.2;;;;;;;3.67;100;100579.8;;;;
2021/02/23 23:10:11;;;;;;;115.7;90.7;;;;;;;3.66;100;100586.2;;;;
2021/02/23 23:20:09;;;;;;;112.5;85.3;;;;;;;3.53;100;100587.1;;;;
2021/02/23 23:30:07;;;;;;;111.2;91.1;;;;;;;3.49;100;100603.7;;;;
2021/02/23 23:40:05;;;;;;;120.1;90.9;;;;;;;3.39;100;100593.5;;;;
2021/02/23 23:50:03;;;;;;;100.5;88.8;;;;;;;3.43;100;100594.7;;;;
